createdAt,value
2022-10-07T00:00:54.598Z,0.82
2022-10-07T00:03:23.564Z,0.63
2022-10-07T00:06:01.293Z,0.70
2022-10-07T00:08:28.832Z,0.55
2022-10-07T00:10:56.226Z,0.70
2022-10-07T00:13:24.339Z,0.80
2022-10-07T00:15:51.813Z,1.35
2022-10-07T00:18:19.258Z,1.00
2022-10-07T00:20:48.613Z,0.70
2022-10-07T00:23:16.112Z,1.27
2022-10-07T00:25:43.552Z,1.40
2022-10-07T00:28:11.638Z,1.08
2022-10-07T00:30:39.808Z,0.95
2022-10-07T00:33:07.398Z,0.75
2022-10-07T00:35:36.152Z,0.80
2022-10-07T00:38:04.257Z,0.90
2022-10-07T00:40:31.750Z,0.77
2022-10-07T00:42:59.846Z,2.13
2022-10-07T00:45:27.581Z,0.60
2022-10-07T00:47:55.032Z,1.35
2022-10-07T00:50:27.239Z,1.15
2022-10-07T00:52:59.522Z,0.80
2022-10-07T00:55:29.145Z,0.88
2022-10-07T00:58:02.636Z,0.93
2022-10-07T01:00:33.672Z,0.57
2022-10-07T01:03:01.955Z,0.50
2022-10-07T01:05:31.240Z,0.65
2022-10-07T01:08:02.188Z,1.15
2022-10-07T01:10:34.484Z,1.13
2022-10-07T01:13:07.183Z,0.80
2022-10-07T01:15:40.770Z,0.90
2022-10-07T01:18:13.645Z,0.98
2022-10-07T01:23:19.498Z,1.02
2022-10-07T01:26:05.239Z,1.15
2022-10-07T01:28:39.888Z,0.73
2022-10-07T01:31:09.048Z,1.38
2022-10-07T01:33:37.852Z,0.90
2022-10-07T01:36:11.346Z,0.73
2022-10-07T01:38:41.617Z,0.60
2022-10-07T01:41:12.514Z,0.95
2022-10-07T01:43:40.719Z,0.60
2022-10-07T01:46:10.415Z,1.00
2022-10-07T01:48:38.001Z,1.20
2022-10-07T01:51:08.960Z,1.08
2022-10-07T01:53:51.442Z,0.70
2022-10-07T01:56:37.174Z,0.98
2022-10-07T01:59:17.313Z,1.63
2022-10-07T02:01:44.780Z,0.80
2022-10-07T02:04:18.454Z,0.85
2022-10-07T02:07:05.144Z,0.90
2022-10-07T02:09:42.676Z,1.08
2022-10-07T02:12:17.118Z,0.88
2022-10-07T02:14:50.314Z,0.45
2022-10-07T02:17:22.738Z,0.93
2022-10-07T02:19:54.142Z,0.98
2022-10-07T02:22:25.134Z,0.80
2022-10-07T02:25:00.515Z,1.70
2022-10-07T02:27:31.312Z,1.48
2022-10-07T02:32:41.641Z,1.02
2022-10-07T02:35:17.958Z,1.48
2022-10-07T02:37:48.775Z,1.13
2022-10-07T02:40:16.305Z,1.17
2022-10-07T02:43:02.234Z,1.30
2022-10-07T02:45:33.409Z,1.13
2022-10-07T02:48:24.017Z,1.83
2022-10-07T02:50:54.601Z,1.75
2022-10-07T02:53:22.486Z,1.33
2022-10-07T02:55:51.123Z,1.90
2022-10-07T02:58:19.274Z,2.20
2022-10-07T03:00:51.650Z,1.80
2022-10-07T03:03:19.690Z,2.80
2022-10-07T03:05:50.019Z,1.25
2022-10-07T03:08:17.638Z,1.77
2022-10-07T03:10:45.773Z,1.77
2022-10-07T03:13:13.283Z,2.10
2022-10-07T03:15:42.618Z,1.98
2022-10-07T03:18:26.963Z,1.75
2022-10-07T03:20:56.079Z,2.38
2022-10-07T03:23:25.159Z,1.40
2022-10-07T03:25:53.528Z,2.08
2022-10-07T03:28:21.512Z,1.25
2022-10-07T03:30:49.636Z,1.70
2022-10-07T03:33:21.895Z,1.92
2022-10-07T03:35:49.378Z,2.25
2022-10-07T03:38:16.832Z,2.17
2022-10-07T03:40:48.423Z,1.10
2022-10-07T03:43:15.890Z,1.98
2022-10-07T03:45:50.059Z,1.23
2022-10-07T03:48:17.999Z,1.67
2022-10-07T03:50:52.825Z,2.22
2022-10-07T03:53:20.509Z,1.50
2022-10-07T03:55:48.036Z,2.45
2022-10-07T03:58:15.892Z,1.70
2022-10-07T04:00:43.353Z,1.52
2022-10-07T04:03:11.340Z,2.28
2022-10-07T04:05:38.893Z,1.98
2022-10-07T04:08:06.404Z,2.03
2022-10-07T04:10:34.245Z,1.40
2022-10-07T04:13:01.835Z,1.65
2022-10-07T04:15:29.319Z,1.95
2022-10-07T04:18:02.280Z,2.08
2022-10-07T04:22:56.799Z,2.45
2022-10-07T04:25:36.254Z,1.92
2022-10-07T04:28:05.944Z,1.83
2022-10-07T04:30:35.474Z,2.22
2022-10-07T04:33:03.862Z,1.83
2022-10-07T04:35:31.476Z,2.28
2022-10-07T04:37:59.034Z,2.00
2022-10-07T04:40:29.163Z,2.15
2022-10-07T04:43:14.925Z,1.38
2022-10-07T04:45:42.442Z,2.53
2022-10-07T04:48:10.272Z,2.10
2022-10-07T04:50:39.148Z,1.42
2022-10-07T04:53:07.088Z,1.40
2022-10-07T04:55:41.566Z,1.90
2022-10-07T04:58:09.476Z,1.30
2022-10-07T05:00:37.187Z,2.42
2022-10-07T05:03:04.717Z,1.40
2022-10-07T05:05:32.328Z,1.67
2022-10-07T05:07:59.723Z,1.58
2022-10-07T05:10:27.357Z,1.60
2022-10-07T05:12:56.253Z,2.00
2022-10-07T05:15:25.203Z,1.10
2022-10-07T05:17:54.753Z,1.02
2022-10-07T05:20:23.844Z,1.70
2022-10-07T05:22:51.279Z,1.63
2022-10-07T05:25:20.652Z,1.88
2022-10-07T05:27:52.433Z,1.40
2022-10-07T05:30:20.559Z,1.23
2022-10-07T05:32:48.151Z,0.73
2022-10-07T05:35:15.837Z,1.00
2022-10-07T05:37:47.504Z,1.13
2022-10-07T05:40:17.610Z,1.00
2022-10-07T05:42:45.253Z,0.93
2022-10-07T05:45:13.013Z,1.30
2022-10-07T05:47:41.996Z,0.98
2022-10-07T05:50:09.886Z,0.93
2022-10-07T05:52:38.705Z,1.00
2022-10-07T05:55:06.644Z,1.10
2022-10-07T05:57:34.233Z,0.88
2022-10-07T06:00:05.197Z,1.13
2022-10-07T06:02:33.254Z,1.27
2022-10-07T06:05:01.688Z,0.85
2022-10-07T06:07:29.884Z,0.70
2022-10-07T06:10:15.554Z,0.73
2022-10-07T06:13:02.235Z,0.80
2022-10-07T06:15:31.036Z,0.40
2022-10-07T06:17:58.481Z,0.75
2022-10-07T06:20:25.988Z,1.30
2022-10-07T06:22:54.411Z,1.27
2022-10-07T06:25:22.388Z,0.80
2022-10-07T06:27:53.897Z,0.85
2022-10-07T06:30:22.046Z,0.43
2022-10-07T06:32:49.721Z,0.60
2022-10-07T06:35:17.178Z,0.40
2022-10-07T06:37:46.350Z,0.30
2022-10-07T06:40:14.108Z,0.43
2022-10-07T06:42:41.578Z,0.63
2022-10-07T06:45:09.456Z,0.75
2022-10-07T06:47:36.901Z,0.50
2022-10-07T06:50:05.469Z,0.32
2022-10-07T06:52:32.913Z,0.40
2022-10-07T06:55:01.028Z,0.50
2022-10-07T06:57:44.848Z,0.95
2022-10-07T07:00:13.252Z,0.20
2022-10-07T07:02:40.867Z,0.47
2022-10-07T07:05:09.625Z,0.20
2022-10-07T07:07:37.040Z,0.40
2022-10-07T07:10:04.642Z,0.50
2022-10-07T07:12:32.194Z,0.70
2022-10-07T07:15:00.913Z,0.32
2022-10-07T07:17:28.421Z,0.57
2022-10-07T07:19:57.080Z,0.60
2022-10-07T07:22:24.528Z,0.38
2022-10-07T07:24:51.983Z,0.60
2022-10-07T07:27:19.461Z,0.30
2022-10-07T07:29:46.916Z,0.70
2022-10-07T07:32:14.337Z,0.35
2022-10-07T07:34:41.853Z,0.45
2022-10-07T07:37:09.376Z,0.35
2022-10-07T07:39:36.736Z,0.30
2022-10-07T07:42:05.631Z,0.38
2022-10-07T07:44:35.074Z,0.55
2022-10-07T07:47:02.569Z,0.40
2022-10-07T07:49:32.601Z,0.40
2022-10-07T07:52:00.322Z,0.32
2022-10-07T07:54:31.131Z,0.50
2022-10-07T07:56:58.564Z,0.30
2022-10-07T07:59:26.567Z,0.30
2022-10-07T08:01:53.960Z,0.30
2022-10-07T08:04:21.686Z,0.68
2022-10-07T08:06:49.115Z,0.40
2022-10-07T08:09:16.653Z,0.40
2022-10-07T08:11:45.862Z,0.65
2022-10-07T08:14:18.057Z,0.17
2022-10-07T08:16:45.544Z,0.40
2022-10-07T08:19:13.060Z,0.28
2022-10-07T08:21:41.135Z,0.25
2022-10-07T08:24:12.846Z,0.40
2022-10-07T08:26:40.411Z,0.32
2022-10-07T08:29:07.854Z,0.20
2022-10-07T08:31:36.348Z,0.17
2022-10-07T08:34:04.707Z,0.35
2022-10-07T08:36:36.242Z,0.20
2022-10-07T08:39:05.191Z,0.20
2022-10-07T08:41:35.561Z,0.40
2022-10-07T08:44:19.217Z,0.52
2022-10-07T08:46:53.838Z,0.20
2022-10-07T08:49:26.565Z,0.10
2022-10-07T08:52:00.730Z,0.20
2022-10-07T08:54:29.862Z,0.20
2022-10-07T08:57:00.285Z,0.10
2022-10-07T08:59:32.691Z,0.28
2022-10-07T09:02:03.708Z,0.38
2022-10-07T09:04:50.785Z,0.20
2022-10-07T09:07:20.930Z,0.20
2022-10-07T09:10:14.664Z,0.25
2022-10-07T09:12:45.078Z,0.30
2022-10-07T09:15:17.887Z,0.20
2022-10-07T09:17:51.289Z,0.30
2022-10-07T09:20:19.917Z,0.30
2022-10-07T09:22:51.590Z,0.20
2022-10-07T09:25:23.146Z,0.30
2022-10-07T09:27:52.262Z,0.25
2022-10-07T09:30:20.653Z,0.25
2022-10-07T09:32:49.822Z,0.22
2022-10-07T09:35:22.607Z,0.30
2022-10-07T09:37:57.311Z,0.25
2022-10-07T09:40:27.856Z,0.52
2022-10-07T09:42:55.603Z,0.20
2022-10-07T09:45:27.637Z,0.20
2022-10-07T09:47:59.344Z,0.28
2022-10-07T09:50:33.165Z,0.20
2022-10-07T09:53:02.183Z,0.40
2022-10-07T09:55:47.881Z,0.60
2022-10-07T09:58:25.211Z,0.10
2022-10-07T10:00:54.931Z,0.20
2022-10-07T10:03:29.138Z,0.25
2022-10-07T10:06:00.864Z,0.20
2022-10-07T10:08:33.046Z,0.30
2022-10-07T10:11:24.172Z,0.10
2022-10-07T10:13:52.426Z,0.22
2022-10-07T10:16:29.445Z,0.30
2022-10-07T10:18:59.666Z,0.20
2022-10-07T10:21:29.995Z,0.35
2022-10-07T10:24:01.208Z,0.20
2022-10-07T10:26:51.301Z,0.20
2022-10-07T10:29:38.947Z,0.20
2022-10-07T10:32:20.915Z,0.20
2022-10-07T10:34:48.442Z,0.10
2022-10-07T10:37:21.405Z,0.38
2022-10-07T10:40:01.112Z,0.10
2022-10-07T10:42:37.359Z,0.08
2022-10-07T10:45:08.730Z,0.10
2022-10-07T10:47:53.573Z,0.17
2022-10-07T10:50:21.890Z,0.20
2022-10-07T10:53:03.198Z,0.20
2022-10-07T10:55:34.804Z,0.20
2022-10-07T10:58:08.609Z,0.10
2022-10-07T11:00:47.917Z,0.32
2022-10-07T11:03:36.218Z,0.20
2022-10-07T11:06:06.361Z,0.20
2022-10-07T11:08:38.388Z,0.15
2022-10-07T11:11:12.806Z,0.32
2022-10-07T11:13:45.018Z,0.10
2022-10-07T11:16:20.196Z,0.10
2022-10-07T11:18:59.372Z,0.15
2022-10-07T11:21:30.790Z,0.20
2022-10-07T11:24:03.597Z,0.20
2022-10-07T11:26:58.771Z,0.20
2022-10-07T11:29:29.341Z,0.20
2022-10-07T11:32:05.648Z,0.13
2022-10-07T11:34:41.025Z,0.20
2022-10-07T11:37:12.720Z,0.20
2022-10-07T11:39:40.661Z,0.30
2022-10-07T11:42:20.886Z,0.17
2022-10-07T11:44:56.235Z,0.30
2022-10-07T11:47:26.050Z,0.70
2022-10-07T11:49:58.461Z,0.20
2022-10-07T11:52:28.092Z,0.20
2022-10-07T11:55:00.038Z,0.50
2022-10-07T11:57:32.010Z,0.20
2022-10-07T12:00:01.112Z,0.25
2022-10-07T12:02:31.781Z,0.35
2022-10-07T12:05:03.962Z,0.32
2022-10-07T12:07:40.556Z,0.65
2022-10-07T12:10:18.764Z,0.30
2022-10-07T12:12:48.051Z,0.30
2022-10-07T12:15:30.956Z,0.25
2022-10-07T12:18:04.907Z,2.35
2022-10-07T12:20:35.439Z,0.28
2022-10-07T12:23:18.886Z,1.70
2022-10-07T12:25:50.166Z,0.50
2022-10-07T12:28:27.046Z,0.43
2022-10-07T12:31:00.843Z,0.50
2022-10-07T12:33:36.150Z,0.22
2022-10-07T12:36:22.117Z,0.35
2022-10-07T12:39:01.472Z,0.32
2022-10-07T12:41:36.402Z,0.30
2022-10-07T12:44:07.287Z,0.28
2022-10-07T12:46:51.717Z,2.03
2022-10-07T12:49:27.082Z,0.20
2022-10-07T12:51:55.387Z,0.10
2022-10-07T12:54:25.737Z,0.32
2022-10-07T12:56:53.701Z,0.40
2022-10-07T12:59:48.284Z,0.77
2022-10-07T13:02:27.922Z,0.30
2022-10-07T13:05:14.207Z,0.40
2022-10-07T13:07:47.577Z,0.20
2022-10-07T13:10:33.794Z,0.50
2022-10-07T13:13:05.906Z,0.20
2022-10-07T13:15:42.063Z,0.20
2022-10-07T13:18:11.034Z,0.17
2022-10-07T13:20:59.566Z,0.30
2022-10-07T13:23:28.357Z,0.50
2022-10-07T13:25:57.048Z,0.28
2022-10-07T13:28:25.915Z,0.30
2022-10-07T13:30:54.406Z,0.20
2022-10-07T13:33:29.555Z,0.10
2022-10-07T13:36:07.896Z,0.20
2022-10-07T13:38:36.657Z,0.20
2022-10-07T13:41:08.878Z,0.30
2022-10-07T13:43:38.707Z,0.10
2022-10-07T13:46:09.570Z,0.20
2022-10-07T13:48:43.104Z,0.10
2022-10-07T13:51:27.752Z,0.17
2022-10-07T13:53:59.821Z,0.10
2022-10-07T13:56:28.645Z,0.45
2022-10-07T13:58:56.941Z,0.40
2022-10-07T14:01:27.891Z,0.13
2022-10-07T14:04:17.888Z,0.22
2022-10-07T14:06:59.320Z,0.20
2022-10-07T14:09:32.511Z,0.50
2022-10-07T14:12:03.085Z,0.20
2022-10-07T14:15:03.045Z,0.30
2022-10-07T14:17:39.593Z,0.40
2022-10-07T14:20:16.884Z,0.57
2022-10-07T14:22:48.034Z,0.22
2022-10-07T14:25:23.841Z,0.20
2022-10-07T14:27:55.360Z,0.10
2022-10-07T14:30:30.488Z,0.32
2022-10-07T14:33:25.373Z,0.10
2022-10-07T14:36:11.405Z,0.10
2022-10-07T14:38:38.977Z,0.30
2022-10-07T14:41:06.481Z,0.43
2022-10-07T14:43:34.578Z,0.20
2022-10-07T14:46:17.286Z,0.10
2022-10-07T14:48:46.456Z,0.32
2022-10-07T14:51:15.776Z,0.20
2022-10-07T14:53:43.880Z,0.40
2022-10-07T14:56:15.750Z,0.20
2022-10-07T14:58:43.073Z,0.10
2022-10-07T15:01:10.470Z,0.20
2022-10-07T15:03:38.257Z,0.20
2022-10-07T15:06:07.466Z,0.20
2022-10-07T15:08:34.865Z,0.25
2022-10-07T15:11:03.475Z,0.20
2022-10-07T15:13:31.086Z,0.35
2022-10-07T15:15:59.586Z,0.25
2022-10-07T15:18:27.026Z,0.10
2022-10-07T15:20:58.454Z,0.10
2022-10-07T15:23:27.311Z,0.10
2022-10-07T15:25:54.797Z,0.20
2022-10-07T15:28:24.192Z,0.17
2022-10-07T15:30:51.824Z,0.20
2022-10-07T15:33:19.151Z,0.47
2022-10-07T15:35:46.490Z,0.35
2022-10-07T15:38:13.776Z,0.30
2022-10-07T15:40:54.956Z,0.20
2022-10-07T15:43:22.642Z,0.25
2022-10-07T15:45:51.860Z,0.20
2022-10-07T15:48:20.980Z,0.10
2022-10-07T15:50:48.805Z,0.10
2022-10-07T15:53:17.091Z,0.10
2022-10-07T15:55:55.025Z,0.13
2022-10-07T15:58:23.961Z,0.10
2022-10-07T16:01:17.645Z,0.10
2022-10-07T16:03:48.583Z,0.20
2022-10-07T16:06:18.236Z,0.30
2022-10-07T16:08:45.574Z,0.30
2022-10-07T16:11:13.122Z,0.43
2022-10-07T16:13:45.444Z,0.10
2022-10-07T16:16:14.935Z,0.10
2022-10-07T16:18:44.088Z,0.10
2022-10-07T16:21:12.988Z,0.17
2022-10-07T16:23:44.995Z,0.20
2022-10-07T16:26:13.564Z,0.30
2022-10-07T16:29:03.577Z,0.10
2022-10-07T16:31:32.001Z,0.10
2022-10-07T16:33:59.448Z,0.10
2022-10-07T16:36:27.157Z,0.10
2022-10-07T16:38:55.136Z,0.25
2022-10-07T16:41:22.573Z,0.10
2022-10-07T16:43:50.600Z,0.10
2022-10-07T16:46:21.665Z,0.30
2022-10-07T16:48:50.028Z,0.10
2022-10-07T16:51:18.666Z,0.15
2022-10-07T16:53:47.221Z,0.10
2022-10-07T16:56:14.776Z,0.30
2022-10-07T16:58:44.536Z,0.10
2022-10-07T17:01:13.600Z,0.10
2022-10-07T17:03:42.060Z,0.10
2022-10-07T17:06:13.710Z,0.00
2022-10-07T17:08:46.159Z,0.20
2022-10-07T17:11:32.724Z,0.10
2022-10-07T17:14:04.913Z,0.20
2022-10-07T17:16:43.563Z,0.10
2022-10-07T17:19:15.563Z,0.10
2022-10-07T17:21:43.444Z,0.10
2022-10-07T17:24:11.214Z,0.52
2022-10-07T17:26:41.763Z,0.13
2022-10-07T17:40:25.199Z,0.10
2022-10-07T17:42:54.759Z,0.10
2022-10-07T17:45:22.417Z,0.10
2022-10-07T17:47:49.812Z,0.10
2022-10-07T18:25:20.247Z,0.22
2022-10-07T18:27:48.356Z,1.17
2022-10-07T18:30:19.084Z,0.32
2022-10-07T18:32:46.664Z,0.10
2022-10-07T18:35:14.116Z,0.10
2022-10-07T18:37:41.520Z,0.10
2022-10-07T18:40:09.269Z,0.10
2022-10-07T18:42:37.075Z,0.10
2022-10-07T18:45:04.831Z,0.22
2022-10-07T18:47:32.301Z,0.20
2022-10-07T18:49:59.804Z,0.45
2022-10-07T18:52:27.338Z,0.50
2022-10-07T18:54:55.639Z,0.17
2022-10-07T18:57:23.116Z,0.45
2022-10-07T18:59:50.629Z,0.10
2022-10-07T19:02:18.394Z,0.10
2022-10-07T19:04:45.873Z,0.00
2022-10-07T19:07:13.451Z,0.20
2022-10-07T19:09:41.004Z,0.05
2022-10-07T19:12:28.320Z,0.10
2022-10-07T19:14:55.937Z,0.10
2022-10-07T19:17:23.746Z,0.15
2022-10-07T19:42:22.978Z,0.10
2022-10-07T19:44:50.393Z,0.10
2022-10-07T19:47:18.884Z,0.15
2022-10-07T19:49:46.345Z,0.17
2022-10-07T19:52:14.173Z,0.10
2022-10-07T19:54:45.784Z,0.10
2022-10-07T19:57:14.158Z,0.10
2022-10-07T19:59:43.004Z,0.20
2022-10-07T20:02:13.443Z,0.10
2022-10-07T20:04:42.100Z,0.10
2022-10-07T20:07:12.297Z,0.50
2022-10-07T20:09:39.709Z,0.10
2022-10-07T20:12:07.458Z,0.10
2022-10-07T20:48:09.067Z,0.20
2022-10-07T20:50:36.689Z,0.10
2022-10-07T20:53:04.097Z,0.10
2022-10-07T20:55:35.499Z,0.13
2022-10-07T20:58:03.756Z,0.22
2022-10-07T21:00:32.913Z,0.03
2022-10-07T21:03:00.404Z,0.13
2022-10-07T21:05:30.060Z,0.22
2022-10-07T21:07:57.566Z,0.15
2022-10-07T21:10:24.995Z,0.10
2022-10-07T21:12:52.455Z,0.10
2022-10-07T21:15:22.434Z,0.10
2022-10-07T21:17:56.401Z,0.17
2022-10-07T21:20:23.957Z,0.10
2022-10-07T21:22:52.765Z,0.10
2022-10-07T21:25:20.201Z,0.10
2022-10-07T21:27:47.699Z,0.13
2022-10-07T21:30:15.329Z,0.20
2022-10-07T21:32:43.003Z,0.45
2022-10-07T21:35:10.564Z,0.25
2022-10-07T21:37:38.014Z,0.10
2022-10-07T21:40:05.561Z,0.20
2022-10-07T21:42:33.100Z,0.20
2022-10-07T21:45:00.562Z,0.10
2022-10-07T21:47:28.253Z,0.17
2022-10-07T21:49:57.579Z,0.20
2022-10-07T21:52:24.993Z,0.30
2022-10-07T22:00:09.288Z,0.20
2022-10-07T22:02:36.908Z,0.20
2022-10-07T22:05:04.694Z,0.10
2022-10-07T22:07:50.482Z,0.20
2022-10-07T22:10:18.070Z,0.10
2022-10-07T22:12:45.926Z,0.17
2022-10-07T22:15:13.758Z,0.20
2022-10-07T22:17:41.182Z,0.20
2022-10-07T22:20:10.093Z,0.30
2022-10-07T22:22:37.512Z,0.30
2022-10-07T22:25:05.136Z,0.10
2022-10-07T22:27:32.726Z,0.20
2022-10-07T22:30:00.288Z,0.20
2022-10-07T22:32:27.733Z,0.10
2022-10-07T22:35:13.380Z,0.20
2022-10-07T22:37:41.453Z,0.45
2022-10-07T22:40:09.632Z,0.20
2022-10-07T22:42:37.127Z,0.30
2022-10-07T22:45:05.663Z,0.20
2022-10-07T22:47:34.188Z,0.20
2022-10-07T22:50:03.354Z,0.10
2022-10-07T23:15:34.535Z,0.20
2022-10-07T23:18:02.083Z,0.22
2022-10-07T23:20:29.529Z,0.15
2022-10-07T23:22:57.893Z,0.10
2022-10-07T23:25:28.122Z,0.10
2022-10-07T23:27:55.633Z,0.10
2022-10-07T23:30:23.445Z,0.10
2022-10-07T23:32:51.922Z,0.40
2022-10-07T23:35:19.378Z,0.03
2022-10-07T23:37:46.906Z,0.20
2022-10-07T23:40:15.520Z,0.22
2022-10-07T23:42:42.773Z,0.28
2022-10-07T23:45:10.495Z,0.45
2022-10-07T23:47:38.004Z,0.15
2022-10-07T23:50:05.588Z,0.10
2022-10-07T23:52:33.061Z,0.28
2022-10-07T23:55:00.498Z,0.20
2022-10-07T23:57:28.017Z,0.20
2022-10-07T23:59:55.494Z,0.20
